sensor_id;sensor_type;location;lat;lon;timestamp;pressure;altitude;pressure_sealevel;temperature;humidity
72428;BME280;60419;48.880;18.036;2023-03-11T00:02:36;96847.16;;;8.64;62.77
72428;BME280;60419;48.880;18.036;2023-03-11T00:05:27;96878.25;;;8.77;61.79
72428;BME280;60419;48.880;18.036;2023-03-11T00:08:15;96866.00;;;8.48;62.72
72428;BME280;60419;48.880;18.036;2023-03-11T00:11:02;96887.72;;;8.27;63.38
72428;BME280;60419;48.880;18.036;2023-03-11T00:13:47;96893.19;;;8.03;64.34
72428;BME280;60419;48.880;18.036;2023-03-11T00:16:32;96896.19;;;7.61;66.22
72428;BME280;60419;48.880;18.036;2023-03-11T00:19:18;96898.13;;;7.88;67.04
72428;BME280;60419;48.880;18.036;2023-03-11T00:22:03;96886.59;;;7.88;64.93
72428;BME280;60419;48.880;18.036;2023-03-11T00:24:48;96882.38;;;7.87;64.60
72428;BME280;60419;48.880;18.036;2023-03-11T00:27:34;96904.88;;;7.82;66.15
72428;BME280;60419;48.880;18.036;2023-03-11T00:30:22;96867.22;;;8.23;64.13
72428;BME280;60419;48.880;18.036;2023-03-11T00:33:10;96835.75;;;8.83;62.31
72428;BME280;60419;48.880;18.036;2023-03-11T00:35:56;96822.06;;;9.39;60.59
72428;BME280;60419;48.880;18.036;2023-03-11T00:38:41;96818.16;;;9.72;59.40
72428;BME280;60419;48.880;18.036;2023-03-11T00:41:27;96848.38;;;9.81;58.72
72428;BME280;60419;48.880;18.036;2023-03-11T00:44:12;96869.16;;;8.82;61.38
72428;BME280;60419;48.880;18.036;2023-03-11T00:46:58;96856.81;;;8.49;62.96
72428;BME280;60419;48.880;18.036;2023-03-11T00:49:43;96855.94;;;8.61;62.51
72428;BME280;60419;48.880;18.036;2023-03-11T00:52:28;96780.59;;;7.73;62.38
72428;BME280;60419;48.880;18.036;2023-03-11T00:55:16;96854.91;;;8.66;61.86
72428;BME280;60419;48.880;18.036;2023-03-11T00:58:04;96851.56;;;8.12;63.27
72428;BME280;60419;48.880;18.036;2023-03-11T01:00:49;96867.31;;;7.98;63.47
72428;BME280;60419;48.880;18.036;2023-03-11T01:03:35;96865.13;;;8.16;63.43
72428;BME280;60419;48.880;18.036;2023-03-11T01:06:20;96844.19;;;8.37;62.13
72428;BME280;60419;48.880;18.036;2023-03-11T01:09:06;96859.31;;;8.14;63.13
72428;BME280;60419;48.880;18.036;2023-03-11T01:11:51;96859.91;;;8.07;62.97
72428;BME280;60419;48.880;18.036;2023-03-11T01:14:38;96858.97;;;8.15;63.41
72428;BME280;60419;48.880;18.036;2023-03-11T01:17:24;96847.97;;;7.92;63.85
72428;BME280;60419;48.880;18.036;2023-03-11T01:20:10;96852.19;;;7.93;63.62
72428;BME280;60419;48.880;18.036;2023-03-11T01:22:57;96846.44;;;7.79;64.51
72428;BME280;60419;48.880;18.036;2023-03-11T01:25:43;96842.59;;;7.92;64.35
72428;BME280;60419;48.880;18.036;2023-03-11T01:28:28;96840.31;;;8.67;62.31
72428;BME280;60419;48.880;18.036;2023-03-11T01:31:14;96829.81;;;8.17;62.28
72428;BME280;60419;48.880;18.036;2023-03-11T01:33:59;96858.66;;;8.33;63.24
72428;BME280;60419;48.880;18.036;2023-03-11T01:36:44;96848.78;;;8.09;62.38
72428;BME280;60419;48.880;18.036;2023-03-11T01:39:30;96856.41;;;8.07;62.44
72428;BME280;60419;48.880;18.036;2023-03-11T01:42:15;96857.50;;;7.90;61.85
72428;BME280;60419;48.880;18.036;2023-03-11T01:45:00;96852.50;;;8.04;63.06
72428;BME280;60419;48.880;18.036;2023-03-11T01:47:46;96845.31;;;7.80;62.89
72428;BME280;60419;48.880;18.036;2023-03-11T01:50:35;96854.22;;;7.56;61.77
72428;BME280;60419;48.880;18.036;2023-03-11T01:53:21;96842.28;;;7.82;61.77
72428;BME280;60419;48.880;18.036;2023-03-11T01:56:08;96837.25;;;7.80;59.48
72428;BME280;60419;48.880;18.036;2023-03-11T01:58:54;96823.81;;;7.80;60.34
72428;BME280;60419;48.880;18.036;2023-03-11T02:01:51;96824.53;;;7.93;59.88
72428;BME280;60419;48.880;18.036;2023-03-11T02:04:39;96799.81;;;8.15;59.21
72428;BME280;60419;48.880;18.036;2023-03-11T02:07:24;96782.22;;;8.18;58.35
72428;BME280;60419;48.880;18.036;2023-03-11T02:10:11;96787.63;;;8.06;58.19
72428;BME280;60419;48.880;18.036;2023-03-11T02:12:57;96798.97;;;7.99;58.46
72428;BME280;60419;48.880;18.036;2023-03-11T02:15:44;96792.81;;;7.70;57.57
72428;BME280;60419;48.880;18.036;2023-03-11T02:18:29;96798.59;;;7.85;55.45
72428;BME280;60419;48.880;18.036;2023-03-11T02:21:24;96809.91;;;7.78;55.90
72428;BME280;60419;48.880;18.036;2023-03-11T02:25:23;96808.81;;;7.79;54.69
72428;BME280;60419;48.880;18.036;2023-03-11T02:27:39;96809.44;;;7.48;54.42
72428;BME280;60419;48.880;18.036;2023-03-11T02:30:26;96826.56;;;7.56;55.46
72428;BME280;60419;48.880;18.036;2023-03-11T02:33:13;96828.78;;;7.66;55.44
72428;BME280;60419;48.880;18.036;2023-03-11T02:35:59;96825.56;;;7.48;54.17
72428;BME280;60419;48.880;18.036;2023-03-11T02:38:44;96822.97;;;7.51;54.21
72428;BME280;60419;48.880;18.036;2023-03-11T02:41:31;96796.25;;;7.43;54.67
72428;BME280;60419;48.880;18.036;2023-03-11T02:44:17;96814.03;;;7.47;54.61
72428;BME280;60419;48.880;18.036;2023-03-11T02:47:02;96812.69;;;7.29;54.80
72428;BME280;60419;48.880;18.036;2023-03-11T02:49:48;96812.47;;;7.22;54.64
72428;BME280;60419;48.880;18.036;2023-03-11T02:52:34;96790.91;;;6.81;54.23
72428;BME280;60419;48.880;18.036;2023-03-11T02:55:20;96821.00;;;6.99;53.68
72428;BME280;60419;48.880;18.036;2023-03-11T02:58:05;96761.81;;;6.71;54.50
72428;BME280;60419;48.880;18.036;2023-03-11T03:00:51;96824.88;;;6.65;54.77
72428;BME280;60419;48.880;18.036;2023-03-11T03:03:36;96836.06;;;6.67;54.24
72428;BME280;60419;48.880;18.036;2023-03-11T03:06:21;96850.44;;;6.50;54.35
72428;BME280;60419;48.880;18.036;2023-03-11T03:09:07;96855.03;;;6.50;54.54
72428;BME280;60419;48.880;18.036;2023-03-11T03:11:52;96883.03;;;6.40;55.42
72428;BME280;60419;48.880;18.036;2023-03-11T03:14:37;96903.00;;;5.67;59.39
72428;BME280;60419;48.880;18.036;2023-03-11T03:17:23;96914.69;;;5.33;61.08
72428;BME280;60419;48.880;18.036;2023-03-11T03:20:09;96875.50;;;4.99;61.60
72428;BME280;60419;48.880;18.036;2023-03-11T03:22:55;96907.31;;;5.30;62.63
72428;BME280;60419;48.880;18.036;2023-03-11T03:25:41;96930.69;;;5.12;63.72
72428;BME280;60419;48.880;18.036;2023-03-11T03:28:27;96922.78;;;4.60;64.51
72428;BME280;60419;48.880;18.036;2023-03-11T03:31:13;96935.22;;;4.56;66.66
72428;BME280;60419;48.880;18.036;2023-03-11T03:33:58;96946.09;;;4.16;67.76
72428;BME280;60419;48.880;18.036;2023-03-11T03:36:43;96939.75;;;3.68;66.84
72428;BME280;60419;48.880;18.036;2023-03-11T03:39:29;96965.13;;;3.39;68.20
72428;BME280;60419;48.880;18.036;2023-03-11T03:42:14;96974.78;;;3.18;71.43
72428;BME280;60419;48.880;18.036;2023-03-11T03:44:59;96991.16;;;2.94;73.49
72428;BME280;60419;48.880;18.036;2023-03-11T03:47:45;96969.00;;;2.93;68.80
72428;BME280;60419;48.880;18.036;2023-03-11T03:50:30;96977.81;;;2.94;68.45
72428;BME280;60419;48.880;18.036;2023-03-11T03:53:15;96974.56;;;3.06;67.27
72428;BME280;60419;48.880;18.036;2023-03-11T03:56:09;96985.47;;;3.27;67.14
72428;BME280;60419;48.880;18.036;2023-03-11T03:58:55;96988.72;;;3.46;66.10
72428;BME280;60419;48.880;18.036;2023-03-11T04:01:41;96986.72;;;3.21;65.33
72428;BME280;60419;48.880;18.036;2023-03-11T04:04:26;96991.94;;;3.34;64.90
72428;BME280;60419;48.880;18.036;2023-03-11T04:07:12;96974.41;;;3.42;64.45
72428;BME280;60419;48.880;18.036;2023-03-11T04:09:57;96965.88;;;3.31;63.85
72428;BME280;60419;48.880;18.036;2023-03-11T04:12:43;96974.41;;;3.02;64.00
72428;BME280;60419;48.880;18.036;2023-03-11T04:15:28;96990.78;;;3.18;63.88
72428;BME280;60419;48.880;18.036;2023-03-11T04:18:13;96989.84;;;3.54;62.33
72428;BME280;60419;48.880;18.036;2023-03-11T04:20:59;97001.84;;;3.34;62.47
72428;BME280;60419;48.880;18.036;2023-03-11T04:23:44;97004.22;;;3.35;62.16
72428;BME280;60419;48.880;18.036;2023-03-11T04:26:30;96988.72;;;3.46;61.61
72428;BME280;60419;48.880;18.036;2023-03-11T04:29:15;97020.13;;;3.49;60.23
72428;BME280;60419;48.880;18.036;2023-03-11T04:32:00;97014.13;;;3.44;59.42
72428;BME280;60419;48.880;18.036;2023-03-11T04:34:46;97011.28;;;3.40;59.48
72428;BME280;60419;48.880;18.036;2023-03-11T04:37:31;97029.31;;;3.34;58.43
72428;BME280;60419;48.880;18.036;2023-03-11T04:40:17;97020.03;;;3.32;58.97
72428;BME280;60419;48.880;18.036;2023-03-11T04:43:03;97027.66;;;3.47;58.40
72428;BME280;60419;48.880;18.036;2023-03-11T04:45:49;97021.91;;;3.23;58.37
72428;BME280;60419;48.880;18.036;2023-03-11T04:48:34;97031.69;;;3.36;57.34
72428;BME280;60419;48.880;18.036;2023-03-11T04:51:19;97036.38;;;3.30;57.83
72428;BME280;60419;48.880;18.036;2023-03-11T04:54:05;97034.59;;;2.94;57.85
72428;BME280;60419;48.880;18.036;2023-03-11T04:56:50;97040.22;;;3.15;58.21
72428;BME280;60419;48.880;18.036;2023-03-11T04:59:35;97029.09;;;2.68;60.45
72428;BME280;60419;48.880;18.036;2023-03-11T05:02:21;97038.25;;;2.76;61.59
72428;BME280;60419;48.880;18.036;2023-03-11T05:05:07;97035.25;;;2.55;62.67
72428;BME280;60419;48.880;18.036;2023-03-11T05:07:53;97050.75;;;2.53;64.10
72428;BME280;60419;48.880;18.036;2023-03-11T05:10:39;97050.72;;;2.31;64.99
72428;BME280;60419;48.880;18.036;2023-03-11T05:13:26;97065.25;;;2.24;65.05
72428;BME280;60419;48.880;18.036;2023-03-11T05:16:12;97054.50;;;2.16;66.24
72428;BME280;60419;48.880;18.036;2023-03-11T05:18:57;97059.44;;;2.09;66.44
72428;BME280;60419;48.880;18.036;2023-03-11T05:21:42;97058.19;;;2.42;66.17
72428;BME280;60419;48.880;18.036;2023-03-11T05:24:28;97062.25;;;2.40;65.56
72428;BME280;60419;48.880;18.036;2023-03-11T05:27:15;97047.66;;;2.37;66.58
72428;BME280;60419;48.880;18.036;2023-03-11T05:30:02;97064.59;;;2.41;65.94
72428;BME280;60419;48.880;18.036;2023-03-11T05:32:48;97040.81;;;2.09;65.32
72428;BME280;60419;48.880;18.036;2023-03-11T05:35:33;97076.34;;;1.90;66.89
72428;BME280;60419;48.880;18.036;2023-03-11T05:38:19;97060.22;;;2.09;66.52
72428;BME280;60419;48.880;18.036;2023-03-11T05:41:04;97057.38;;;1.92;66.71
72428;BME280;60419;48.880;18.036;2023-03-11T05:43:50;97077.59;;;1.79;67.29
72428;BME280;60419;48.880;18.036;2023-03-11T05:46:35;97078.66;;;1.50;67.70
72428;BME280;60419;48.880;18.036;2023-03-11T05:49:21;97051.59;;;1.62;68.92
72428;BME280;60419;48.880;18.036;2023-03-11T05:52:06;97079.09;;;1.71;69.38
72428;BME280;60419;48.880;18.036;2023-03-11T05:54:52;97102.50;;;1.41;70.27
72428;BME280;60419;48.880;18.036;2023-03-11T05:57:38;97075.09;;;1.27;71.63
72428;BME280;60419;48.880;18.036;2023-03-11T06:00:23;97077.44;;;1.29;73.40
72428;BME280;60419;48.880;18.036;2023-03-11T06:03:08;97081.28;;;0.90;73.41
72428;BME280;60419;48.880;18.036;2023-03-11T06:05:54;97074.59;;;0.92;74.36
72428;BME280;60419;48.880;18.036;2023-03-11T06:08:39;97062.28;;;0.83;74.36
72428;BME280;60419;48.880;18.036;2023-03-11T06:11:30;97080.34;;;1.00;76.37
72428;BME280;60419;48.880;18.036;2023-03-11T06:14:15;97089.44;;;1.12;75.88
72428;BME280;60419;48.880;18.036;2023-03-11T06:17:01;97094.19;;;0.83;75.73
72428;BME280;60419;48.880;18.036;2023-03-11T06:19:48;97095.78;;;0.97;75.65
72428;BME280;60419;48.880;18.036;2023-03-11T06:22:33;97084.75;;;0.90;75.92
72428;BME280;60419;48.880;18.036;2023-03-11T06:25:18;97100.59;;;0.95;76.23
72428;BME280;60419;48.880;18.036;2023-03-11T06:28:04;97098.75;;;0.77;77.35
72428;BME280;60419;48.880;18.036;2023-03-11T06:30:49;97105.75;;;0.73;77.83
72428;BME280;60419;48.880;18.036;2023-03-11T06:33:34;97109.25;;;0.68;77.58
72428;BME280;60419;48.880;18.036;2023-03-11T06:36:20;97110.50;;;1.09;77.28
72428;BME280;60419;48.880;18.036;2023-03-11T06:39:06;97110.94;;;0.97;75.77
72428;BME280;60419;48.880;18.036;2023-03-11T06:41:51;97121.31;;;0.99;75.37
72428;BME280;60419;48.880;18.036;2023-03-11T06:44:37;97133.50;;;1.00;74.90
72428;BME280;60419;48.880;18.036;2023-03-11T06:47:22;97117.81;;;1.17;74.90
72428;BME280;60419;48.880;18.036;2023-03-11T06:50:08;97144.06;;;1.05;74.58
72428;BME280;60419;48.880;18.036;2023-03-11T06:52:53;97143.13;;;1.14;75.31
72428;BME280;60419;48.880;18.036;2023-03-11T06:55:39;97156.00;;;1.07;75.87
72428;BME280;60419;48.880;18.036;2023-03-11T06:58:24;97145.03;;;1.28;75.83
72428;BME280;60419;48.880;18.036;2023-03-11T07:01:12;97132.16;;;1.02;75.90
72428;BME280;60419;48.880;18.036;2023-03-11T07:03:58;97118.88;;;0.83;74.62
72428;BME280;60419;48.880;18.036;2023-03-11T07:06:43;97153.38;;;0.88;77.10
72428;BME280;60419;48.880;18.036;2023-03-11T07:09:29;97154.00;;;0.99;76.97
72428;BME280;60419;48.880;18.036;2023-03-11T07:12:14;97150.78;;;0.83;77.64
72428;BME280;60419;48.880;18.036;2023-03-11T07:14:59;97159.53;;;0.84;77.75
72428;BME280;60419;48.880;18.036;2023-03-11T07:17:45;97176.13;;;0.75;76.57
72428;BME280;60419;48.880;18.036;2023-03-11T07:20:30;97137.94;;;1.23;75.79
72428;BME280;60419;48.880;18.036;2023-03-11T07:23:15;97163.53;;;1.19;76.78
72428;BME280;60419;48.880;18.036;2023-03-11T07:26:01;97171.88;;;1.12;77.26
72428;BME280;60419;48.880;18.036;2023-03-11T07:28:46;97183.16;;;1.23;77.51
72428;BME280;60419;48.880;18.036;2023-03-11T07:31:33;97172.88;;;0.97;77.22
72428;BME280;60419;48.880;18.036;2023-03-11T07:34:19;97151.41;;;0.56;77.21
72428;BME280;60419;48.880;18.036;2023-03-11T07:37:04;97192.41;;;0.69;76.99
72428;BME280;60419;48.880;18.036;2023-03-11T07:39:49;97187.88;;;0.69;77.27
72428;BME280;60419;48.880;18.036;2023-03-11T07:42:35;97184.69;;;0.91;77.31
72428;BME280;60419;48.880;18.036;2023-03-11T07:45:20;97182.66;;;0.64;78.88
72428;BME280;60419;48.880;18.036;2023-03-11T07:48:05;97188.31;;;0.58;77.65
72428;BME280;60419;48.880;18.036;2023-03-11T07:50:59;97164.22;;;0.73;77.19
72428;BME280;60419;48.880;18.036;2023-03-11T07:53:45;97189.22;;;0.48;78.17
72428;BME280;60419;48.880;18.036;2023-03-11T07:56:33;97188.13;;;0.54;79.22
72428;BME280;60419;48.880;18.036;2023-03-11T07:59:19;97218.66;;;0.94;79.21
72428;BME280;60419;48.880;18.036;2023-03-11T08:02:04;97194.09;;;0.84;78.80
72428;BME280;60419;48.880;18.036;2023-03-11T08:04:49;97221.06;;;0.72;80.15
72428;BME280;60419;48.880;18.036;2023-03-11T08:07:34;97213.84;;;0.96;78.95
72428;BME280;60419;48.880;18.036;2023-03-11T08:10:20;97221.66;;;0.69;79.33
72428;BME280;60419;48.880;18.036;2023-03-11T08:13:05;97247.53;;;0.39;79.77
72428;BME280;60419;48.880;18.036;2023-03-11T08:15:50;97239.59;;;0.34;77.19
72428;BME280;60419;48.880;18.036;2023-03-11T08:18:36;97218.81;;;0.41;78.38
72428;BME280;60419;48.880;18.036;2023-03-11T08:21:23;97232.66;;;0.81;77.49
72428;BME280;60419;48.880;18.036;2023-03-11T08:24:11;97243.16;;;0.72;79.51
72428;BME280;60419;48.880;18.036;2023-03-11T08:26:57;97215.28;;;0.46;78.31
72428;BME280;60419;48.880;18.036;2023-03-11T08:29:42;97247.78;;;0.38;78.06
72428;BME280;60419;48.880;18.036;2023-03-11T08:32:27;97256.94;;;0.74;77.81
72428;BME280;60419;48.880;18.036;2023-03-11T08:35:16;97253.72;;;0.78;77.45
72428;BME280;60419;48.880;18.036;2023-03-11T08:38:01;97267.28;;;0.76;76.84
72428;BME280;60419;48.880;18.036;2023-03-11T08:40:46;97242.41;;;1.94;74.03
72428;BME280;60419;48.880;18.036;2023-03-11T08:43:32;97265.28;;;0.87;77.21
72428;BME280;60419;48.880;18.036;2023-03-11T08:46:29;97251.47;;;0.66;78.48
72428;BME280;60419;48.880;18.036;2023-03-11T08:49:14;97268.53;;;0.84;76.65
72428;BME280;60419;48.880;18.036;2023-03-11T08:52:00;97257.44;;;2.18;72.93
72428;BME280;60419;48.880;18.036;2023-03-11T08:54:46;97284.34;;;1.13;77.43
72428;BME280;60419;48.880;18.036;2023-03-11T08:57:31;97287.00;;;0.94;77.15
72428;BME280;60419;48.880;18.036;2023-03-11T09:00:18;97292.53;;;0.97;76.18
72428;BME280;60419;48.880;18.036;2023-03-11T09:03:03;97305.16;;;0.87;78.03
72428;BME280;60419;48.880;18.036;2023-03-11T09:05:55;97301.31;;;0.74;76.54
72428;BME280;60419;48.880;18.036;2023-03-11T09:08:42;97324.78;;;0.67;75.37
72428;BME280;60419;48.880;18.036;2023-03-11T09:11:28;97320.66;;;0.80;75.52
72428;BME280;60419;48.880;18.036;2023-03-11T09:14:13;97329.13;;;1.06;75.25
72428;BME280;60419;48.880;18.036;2023-03-11T09:16:58;97323.13;;;1.19;74.77
72428;BME280;60419;48.880;18.036;2023-03-11T09:19:44;97340.00;;;1.28;73.64
72428;BME280;60419;48.880;18.036;2023-03-11T09:22:29;97341.16;;;1.22;72.05
72428;BME280;60419;48.880;18.036;2023-03-11T09:25:14;97357.16;;;1.41;71.93
72428;BME280;60419;48.880;18.036;2023-03-11T09:28:00;97356.28;;;1.46;71.79
72428;BME280;60419;48.880;18.036;2023-03-11T09:30:45;97350.13;;;1.07;71.30
72428;BME280;60419;48.880;18.036;2023-03-11T09:33:32;97356.56;;;1.44;71.44
72428;BME280;60419;48.880;18.036;2023-03-11T09:36:20;97365.31;;;1.26;72.22
72428;BME280;60419;48.880;18.036;2023-03-11T09:39:06;97354.03;;;1.15;72.73
72428;BME280;60419;48.880;18.036;2023-03-11T09:42:03;97387.50;;;1.16;71.78
72428;BME280;60419;48.880;18.036;2023-03-11T09:45:03;97376.16;;;1.53;72.32
72428;BME280;60419;48.880;18.036;2023-03-11T09:50:58;97365.16;;;5.47;84.74
72428;BME280;60419;48.880;18.036;2023-03-11T09:53:54;97408.44;;;2.03;70.34
72428;BME280;60419;48.880;18.036;2023-03-11T09:56:41;97388.16;;;1.70;72.50
72428;BME280;60419;48.880;18.036;2023-03-11T09:59:31;97386.19;;;1.94;71.86
72428;BME280;60419;48.880;18.036;2023-03-11T10:02:19;97405.50;;;7.49;66.95
72428;BME280;60419;48.880;18.036;2023-03-11T10:05:08;97416.84;;;4.09;64.69
72428;BME280;60419;48.880;18.036;2023-03-11T10:08:18;97436.38;;;2.06;69.81
72428;BME280;60419;48.880;18.036;2023-03-11T10:26:51;97451.06;;;0.93;76.68
72428;BME280;60419;48.880;18.036;2023-03-11T10:29:57;97470.41;;;1.23;77.00
72428;BME280;60419;48.880;18.036;2023-03-11T10:33:16;97483.72;;;1.23;75.68
72428;BME280;60419;48.880;18.036;2023-03-11T10:36:10;97482.06;;;0.74;77.75
72428;BME280;60419;48.880;18.036;2023-03-11T10:38:56;97490.97;;;1.17;76.74
72428;BME280;60419;48.880;18.036;2023-03-11T10:44:56;97501.91;;;1.40;76.68
72428;BME280;60419;48.880;18.036;2023-03-11T10:47:41;97516.81;;;0.83;77.33
72428;BME280;60419;48.880;18.036;2023-03-11T10:50:26;97525.66;;;0.73;77.81
72428;BME280;60419;48.880;18.036;2023-03-11T10:53:15;97498.16;;;1.17;77.75
72428;BME280;60419;48.880;18.036;2023-03-11T10:56:01;97515.63;;;1.23;76.62
72428;BME280;60419;48.880;18.036;2023-03-11T10:58:49;97503.47;;;1.65;75.65
72428;BME280;60419;48.880;18.036;2023-03-11T11:01:35;97514.59;;;2.10;74.10
72428;BME280;60419;48.880;18.036;2023-03-11T11:04:34;97530.38;;;2.25;73.34
72428;BME280;60419;48.880;18.036;2023-03-11T11:07:27;97549.31;;;2.05;72.65
72428;BME280;60419;48.880;18.036;2023-03-11T11:10:25;97548.03;;;2.02;73.91
72428;BME280;60419;48.880;18.036;2023-03-11T11:16:01;97557.16;;;1.96;72.92
72428;BME280;60419;48.880;18.036;2023-03-11T11:18:47;97565.00;;;2.06;73.64
72428;BME280;60419;48.880;18.036;2023-03-11T11:21:40;97560.66;;;1.68;73.06
72428;BME280;60419;48.880;18.036;2023-03-11T11:24:28;97565.88;;;1.54;73.38
72428;BME280;60419;48.880;18.036;2023-03-11T11:32:52;97598.88;;;1.82;71.86
72428;BME280;60419;48.880;18.036;2023-03-11T11:35:48;97598.09;;;1.76;70.22
72428;BME280;60419;48.880;18.036;2023-03-11T11:38:34;97585.91;;;1.46;71.53
72428;BME280;60419;48.880;18.036;2023-03-11T11:41:22;97600.88;;;2.57;72.39
72428;BME280;60419;48.880;18.036;2023-03-11T11:44:14;97610.88;;;2.03;71.02
72428;BME280;60419;48.880;18.036;2023-03-11T11:47:22;97607.91;;;1.81;71.49
72428;BME280;60419;48.880;18.036;2023-03-11T11:50:15;97610.31;;;3.20;65.55
72428;BME280;60419;48.880;18.036;2023-03-11T11:53:33;97600.19;;;2.84;66.73
72428;BME280;60419;48.880;18.036;2023-03-11T11:56:24;97616.19;;;2.46;67.54
72428;BME280;60419;48.880;18.036;2023-03-11T11:59:15;97622.59;;;2.02;68.89
72428;BME280;60419;48.880;18.036;2023-03-11T12:05:31;97617.13;;;2.13;69.34
72428;BME280;60419;48.880;18.036;2023-03-11T12:08:27;97626.84;;;2.03;68.77
72428;BME280;60419;48.880;18.036;2023-03-11T12:11:32;97642.88;;;1.98;69.75
72428;BME280;60419;48.880;18.036;2023-03-11T12:14:26;97637.72;;;1.83;69.75
72428;BME280;60419;48.880;18.036;2023-03-11T12:17:16;97637.03;;;1.72;69.03
72428;BME280;60419;48.880;18.036;2023-03-11T12:20:13;97653.63;;;1.64;70.03
72428;BME280;60419;48.880;18.036;2023-03-11T12:26:17;97657.81;;;1.94;68.77
72428;BME280;60419;48.880;18.036;2023-03-11T12:29:12;97577.47;;;1.39;69.33
72428;BME280;60419;48.880;18.036;2023-03-11T12:32:01;97650.25;;;1.82;68.81
72428;BME280;60419;48.880;18.036;2023-03-11T12:34:47;97662.66;;;1.63;69.19
72428;BME280;60419;48.880;18.036;2023-03-11T12:37:32;97682.00;;;2.03;68.64
72428;BME280;60419;48.880;18.036;2023-03-11T12:46:15;97660.22;;;1.96;66.72
72428;BME280;60419;48.880;18.036;2023-03-11T12:58:26;97672.66;;;2.48;65.73
72428;BME280;60419;48.880;18.036;2023-03-11T13:01:24;97684.53;;;2.37;66.05
72428;BME280;60419;48.880;18.036;2023-03-11T13:04:38;97698.44;;;2.34;65.39
72428;BME280;60419;48.880;18.036;2023-03-11T13:13:30;97716.63;;;2.27;65.01
72428;BME280;60419;48.880;18.036;2023-03-11T13:40:49;97727.06;;;2.90;62.82
72428;BME280;60419;48.880;18.036;2023-03-11T13:43:43;97728.34;;;2.74;62.12
72428;BME280;60419;48.880;18.036;2023-03-11T13:46:34;97741.75;;;2.69;62.52
72428;BME280;60419;48.880;18.036;2023-03-11T13:49:31;97756.28;;;2.58;62.04
72428;BME280;60419;48.880;18.036;2023-03-11T13:52:24;97759.69;;;2.39;61.55
72428;BME280;60419;48.880;18.036;2023-03-11T13:55:19;97788.00;;;2.30;63.55
72428;BME280;60419;48.880;18.036;2023-03-11T14:01:03;97780.59;;;2.51;61.23
72428;BME280;60419;48.880;18.036;2023-03-11T14:03:49;97788.56;;;2.27;61.09
72428;BME280;60419;48.880;18.036;2023-03-11T14:06:35;97790.78;;;2.44;60.37
72428;BME280;60419;48.880;18.036;2023-03-11T14:09:22;97815.44;;;2.31;60.14
72428;BME280;60419;48.880;18.036;2023-03-11T14:12:08;97789.78;;;2.40;58.92
72428;BME280;60419;48.880;18.036;2023-03-11T14:14:55;97800.06;;;2.76;58.66
72428;BME280;60419;48.880;18.036;2023-03-11T14:17:44;97807.13;;;2.85;58.27
72428;BME280;60419;48.880;18.036;2023-03-11T14:20:30;97818.06;;;2.60;58.71
72428;BME280;60419;48.880;18.036;2023-03-11T14:23:17;97785.50;;;2.39;58.21
72428;BME280;60419;48.880;18.036;2023-03-11T14:26:11;97830.19;;;2.52;58.05
72428;BME280;60419;48.880;18.036;2023-03-11T14:28:59;97821.25;;;2.38;58.07
72428;BME280;60419;48.880;18.036;2023-03-11T14:31:45;97825.75;;;2.42;58.58
72428;BME280;60419;48.880;18.036;2023-03-11T14:34:38;97831.84;;;2.43;58.79
72428;BME280;60419;48.880;18.036;2023-03-11T14:37:34;97852.00;;;2.54;58.27
72428;BME280;60419;48.880;18.036;2023-03-11T14:40:34;97850.41;;;2.53;58.47
72428;BME280;60419;48.880;18.036;2023-03-11T14:43:22;97819.63;;;2.07;58.67
72428;BME280;60419;48.880;18.036;2023-03-11T14:46:07;97860.38;;;2.71;58.17
72428;BME280;60419;48.880;18.036;2023-03-11T14:48:56;97860.19;;;2.63;57.26
72428;BME280;60419;48.880;18.036;2023-03-11T14:51:43;97863.28;;;2.46;56.84
72428;BME280;60419;48.880;18.036;2023-03-11T14:54:32;97852.47;;;2.85;56.33
72428;BME280;60419;48.880;18.036;2023-03-11T14:57:39;97858.88;;;3.08;55.79
72428;BME280;60419;48.880;18.036;2023-03-11T15:00:49;97871.44;;;2.84;55.55
72428;BME280;60419;48.880;18.036;2023-03-11T15:03:50;97874.28;;;2.68;55.67
72428;BME280;60419;48.880;18.036;2023-03-11T15:06:41;97864.97;;;3.14;55.57
72428;BME280;60419;48.880;18.036;2023-03-11T15:09:27;97862.25;;;2.95;54.51
72428;BME280;60419;48.880;18.036;2023-03-11T15:15:23;97850.50;;;3.58;54.04
72428;BME280;60419;48.880;18.036;2023-03-11T15:18:22;97882.47;;;3.82;52.25
72428;BME280;60419;48.880;18.036;2023-03-11T15:21:19;97881.25;;;3.74;51.31
72428;BME280;60419;48.880;18.036;2023-03-11T15:24:05;97889.06;;;4.09;51.02
72428;BME280;60419;48.880;18.036;2023-03-11T15:26:57;97881.38;;;3.45;51.23
72428;BME280;60419;48.880;18.036;2023-03-11T15:29:49;97895.47;;;3.51;52.06
72428;BME280;60419;48.880;18.036;2023-03-11T15:32:39;97867.91;;;2.88;52.18
72428;BME280;60419;48.880;18.036;2023-03-11T15:35:28;97884.50;;;3.09;52.51
72428;BME280;60419;48.880;18.036;2023-03-11T15:38:25;97877.56;;;3.08;53.37
72428;BME280;60419;48.880;18.036;2023-03-11T15:41:14;97885.06;;;2.82;53.35
72428;BME280;60419;48.880;18.036;2023-03-11T15:43:59;97886.72;;;2.78;52.95
72428;BME280;60419;48.880;18.036;2023-03-11T15:46:47;97890.50;;;2.96;52.54
72428;BME280;60419;48.880;18.036;2023-03-11T15:49:32;97908.91;;;2.98;53.24
72428;BME280;60419;48.880;18.036;2023-03-11T15:52:18;97907.81;;;2.75;54.13
72428;BME280;60419;48.880;18.036;2023-03-11T15:55:03;97919.41;;;2.89;53.86
72428;BME280;60419;48.880;18.036;2023-03-11T15:57:51;97917.47;;;2.70;54.11
72428;BME280;60419;48.880;18.036;2023-03-11T16:00:44;97935.56;;;2.73;53.82
72428;BME280;60419;48.880;18.036;2023-03-11T16:03:30;97928.13;;;2.70;54.41
72428;BME280;60419;48.880;18.036;2023-03-11T16:06:15;97930.06;;;2.60;55.18
72428;BME280;60419;48.880;18.036;2023-03-11T16:09:01;97948.38;;;2.71;54.61
72428;BME280;60419;48.880;18.036;2023-03-11T16:11:46;97953.84;;;2.85;54.53
72428;BME280;60419;48.880;18.036;2023-03-11T16:14:31;97953.91;;;2.46;55.56
72428;BME280;60419;48.880;18.036;2023-03-11T16:17:17;97952.28;;;2.79;54.68
72428;BME280;60419;48.880;18.036;2023-03-11T16:20:03;97966.91;;;2.87;55.43